createdAt,value
2018-03-16T00:00:38.238Z,10.77
2018-03-16T00:03:05.676Z,9.65
2018-03-16T00:05:33.130Z,10.27
2018-03-16T00:08:00.571Z,9.73
2018-03-16T00:10:28.026Z,9.95
2018-03-16T00:12:55.463Z,9.55
2018-03-16T00:15:22.909Z,9.95
2018-03-16T00:17:50.392Z,9.35
2018-03-16T00:20:17.856Z,11.02
2018-03-16T00:22:45.303Z,10.73
2018-03-16T00:25:12.757Z,10.40
2018-03-16T00:27:40.210Z,9.60
2018-03-16T00:30:07.652Z,9.98
2018-03-16T00:32:35.104Z,10.13
2018-03-16T00:35:02.552Z,9.98
2018-03-16T00:37:30.041Z,9.02
2018-03-16T00:39:57.479Z,9.23
2018-03-16T00:42:24.933Z,8.15
2018-03-16T00:44:52.396Z,9.38
2018-03-16T00:47:19.848Z,8.63
2018-03-16T00:49:47.283Z,9.30
2018-03-16T00:52:14.756Z,8.90
2018-03-16T00:54:42.222Z,10.45
2018-03-16T00:57:09.683Z,11.10
2018-03-16T00:59:37.128Z,10.80
2018-03-16T01:02:04.589Z,11.20
2018-03-16T01:04:32.032Z,9.52
2018-03-16T01:06:59.485Z,9.45
2018-03-16T01:09:26.932Z,10.65
2018-03-16T01:11:54.389Z,9.00
2018-03-16T01:14:21.827Z,9.02
2018-03-16T01:16:49.275Z,10.95
2018-03-16T01:19:16.716Z,8.40
2018-03-16T01:21:44.173Z,9.23
2018-03-16T01:24:11.607Z,8.93
2018-03-16T01:26:39.121Z,10.75
2018-03-16T01:29:06.571Z,10.07
2018-03-16T01:31:34.016Z,10.38
2018-03-16T01:34:01.463Z,10.52
2018-03-16T01:36:28.920Z,10.55
2018-03-16T01:38:56.370Z,8.70
2018-03-16T01:41:23.806Z,8.50
2018-03-16T01:43:52.062Z,8.70
2018-03-16T01:46:19.535Z,9.32
2018-03-16T01:48:46.992Z,8.25
2018-03-16T01:51:14.424Z,8.95
2018-03-16T01:53:41.872Z,7.90
2018-03-16T01:56:09.325Z,9.10
2018-03-16T01:58:36.781Z,11.02
2018-03-16T02:01:04.897Z,9.88
2018-03-16T02:03:32.349Z,9.02
2018-03-16T02:05:59.799Z,10.07
2018-03-16T02:08:27.247Z,9.52
2018-03-16T02:10:55.010Z,10.20
2018-03-16T02:13:22.465Z,9.45
2018-03-16T02:15:49.914Z,10.15
2018-03-16T02:18:17.369Z,9.85
2018-03-16T02:20:44.808Z,7.80
2018-03-16T02:23:12.264Z,9.10
2018-03-16T02:25:39.701Z,7.95
2018-03-16T02:28:07.161Z,8.50
2018-03-16T02:30:34.601Z,7.53
2018-03-16T02:33:02.123Z,7.75
2018-03-16T02:35:29.519Z,7.03
2018-03-16T02:37:56.977Z,7.50
2018-03-16T02:40:24.413Z,7.07
2018-03-16T02:42:51.859Z,7.28
2018-03-16T02:45:19.304Z,8.35
2018-03-16T02:47:46.746Z,9.07
2018-03-16T02:50:14.211Z,9.50
2018-03-16T02:52:41.657Z,11.25
2018-03-16T02:55:09.130Z,11.50
2018-03-16T02:57:36.576Z,9.55
2018-03-16T03:00:04.019Z,8.68
2018-03-16T03:02:31.449Z,8.40
2018-03-16T03:04:58.903Z,7.47
2018-03-16T03:07:26.344Z,7.70
2018-03-16T03:09:53.793Z,7.40
2018-03-16T03:12:21.232Z,7.90
2018-03-16T03:14:48.740Z,6.10
2018-03-16T03:17:16.430Z,5.82
2018-03-16T03:19:43.872Z,4.65
2018-03-16T03:22:11.308Z,5.07
2018-03-16T03:24:39.234Z,4.90
2018-03-16T03:27:06.677Z,3.75
2018-03-16T03:29:34.124Z,3.50
2018-03-16T03:32:01.600Z,3.53
2018-03-16T03:34:29.034Z,3.83
2018-03-16T03:36:56.482Z,3.33
2018-03-16T03:39:24.017Z,3.85
2018-03-16T03:41:51.453Z,3.22
2018-03-16T03:44:18.921Z,3.70
2018-03-16T03:46:46.366Z,3.97
2018-03-16T03:49:13.805Z,3.25
2018-03-16T03:51:41.274Z,3.65
2018-03-16T03:54:08.741Z,3.37
2018-03-16T03:56:36.191Z,3.15
2018-03-16T03:59:03.629Z,2.75
2018-03-16T04:01:31.086Z,3.17
2018-03-16T04:03:58.567Z,2.90
2018-03-16T04:06:26.008Z,2.28
2018-03-16T04:08:53.439Z,2.50
2018-03-16T04:11:20.884Z,2.03
2018-03-16T04:13:48.314Z,1.90
2018-03-16T04:16:15.767Z,2.30
2018-03-16T04:18:43.204Z,2.53
2018-03-16T04:21:10.647Z,2.15
2018-03-16T04:23:38.072Z,2.05
2018-03-16T04:26:05.517Z,2.20
2018-03-16T04:28:32.952Z,2.20
2018-03-16T04:31:00.396Z,2.20
2018-03-16T04:33:27.999Z,2.10
2018-03-16T04:35:55.503Z,1.83
2018-03-16T04:38:22.973Z,1.90
2018-03-16T04:40:50.428Z,1.70
2018-03-16T04:43:17.865Z,1.70
2018-03-16T04:45:45.303Z,2.12
2018-03-16T04:48:12.747Z,1.52
2018-03-16T04:50:40.221Z,1.87
2018-03-16T04:53:07.662Z,1.60
2018-03-16T04:55:35.096Z,1.60
2018-03-16T04:58:02.548Z,1.30
2018-03-16T05:00:29.993Z,1.50
2018-03-16T05:02:57.451Z,1.73
2018-03-16T05:05:24.892Z,1.60
2018-03-16T05:07:52.336Z,1.55
2018-03-16T05:10:19.781Z,2.00
2018-03-16T05:12:47.228Z,1.60
2018-03-16T05:15:14.651Z,2.00
2018-03-16T05:17:42.092Z,1.92
2018-03-16T05:20:09.530Z,2.10
2018-03-16T05:22:36.977Z,1.90
2018-03-16T05:25:04.413Z,1.60
2018-03-16T05:27:33.010Z,1.45
2018-03-16T05:30:00.444Z,1.60
2018-03-16T05:32:27.890Z,1.50
2018-03-16T05:34:55.332Z,1.80
2018-03-16T05:37:22.794Z,1.40
2018-03-16T05:39:50.243Z,1.40
2018-03-16T05:42:17.679Z,1.40
2018-03-16T05:44:45.122Z,1.70
2018-03-16T05:47:12.567Z,1.50
2018-03-16T05:49:40.005Z,1.30
2018-03-16T05:52:07.437Z,1.45
2018-03-16T05:54:34.875Z,1.40
2018-03-16T05:57:02.321Z,1.90
2018-03-16T05:59:29.748Z,1.15
2018-03-16T06:01:57.176Z,1.50
2018-03-16T06:04:24.636Z,1.62
2018-03-16T06:06:52.074Z,1.80
2018-03-16T06:09:19.530Z,1.55
2018-03-16T06:11:47.046Z,1.42
2018-03-16T06:14:14.492Z,1.58
2018-03-16T06:16:41.932Z,1.48
2018-03-16T06:19:09.396Z,1.50
2018-03-16T06:21:36.837Z,1.80
2018-03-16T06:24:04.275Z,1.42
2018-03-16T06:26:31.719Z,1.90
2018-03-16T06:28:59.173Z,1.85
2018-03-16T06:31:26.609Z,2.42
2018-03-16T06:33:54.072Z,2.40
2018-03-16T06:36:21.511Z,1.92
2018-03-16T06:38:48.954Z,1.70
2018-03-16T06:41:16.796Z,1.80
2018-03-16T06:43:44.240Z,1.65
2018-03-16T06:46:11.674Z,1.85
2018-03-16T06:48:39.122Z,1.80
2018-03-16T06:51:06.554Z,1.87
2018-03-16T06:53:34.018Z,2.03
2018-03-16T06:56:01.457Z,2.22
2018-03-16T06:58:28.947Z,2.10
2018-03-16T07:00:56.357Z,2.42
2018-03-16T07:03:23.817Z,2.30
2018-03-16T07:05:51.261Z,2.28
2018-03-16T07:08:18.701Z,3.25
2018-03-16T07:10:46.139Z,2.20
2018-03-16T07:13:13.613Z,2.00
2018-03-16T07:15:41.071Z,2.45
2018-03-16T07:18:08.524Z,2.67
2018-03-16T07:20:35.976Z,2.20
2018-03-16T07:23:03.425Z,2.03
2018-03-16T07:25:30.880Z,2.10
2018-03-16T07:27:58.312Z,2.22
2018-03-16T07:30:25.752Z,2.00
2018-03-16T07:32:53.205Z,1.70
2018-03-16T07:35:20.642Z,1.50
2018-03-16T07:37:48.077Z,1.73
2018-03-16T07:40:15.523Z,2.20
2018-03-16T07:42:42.964Z,1.70
2018-03-16T07:45:10.405Z,1.62
2018-03-16T07:47:37.855Z,1.80
2018-03-16T07:50:05.312Z,2.17
2018-03-16T07:52:32.760Z,1.80
2018-03-16T07:55:00.213Z,1.90
2018-03-16T07:57:27.660Z,1.60
2018-03-16T07:59:55.129Z,1.45
2018-03-16T08:02:22.572Z,2.20
2018-03-16T08:04:50.029Z,1.70
2018-03-16T08:07:17.484Z,1.92
2018-03-16T08:09:44.931Z,2.85
2018-03-16T08:12:12.376Z,3.42
2018-03-16T08:14:39.817Z,4.03
2018-03-16T08:17:07.264Z,2.35
2018-03-16T08:19:34.696Z,2.17
2018-03-16T08:22:02.173Z,1.87
2018-03-16T08:24:29.649Z,2.25
2018-03-16T08:26:57.122Z,2.70
2018-03-16T08:29:24.581Z,1.30
2018-03-16T08:31:52.041Z,2.70
2018-03-16T08:34:19.503Z,2.22
2018-03-16T08:36:46.985Z,2.80
2018-03-16T08:39:14.431Z,2.10
2018-03-16T08:41:41.877Z,2.10
2018-03-16T08:44:09.311Z,2.65
2018-03-16T08:46:36.773Z,1.80
2018-03-16T08:49:04.229Z,2.25
2018-03-16T08:51:31.680Z,2.42
2018-03-16T08:53:59.235Z,3.65
2018-03-16T08:56:26.683Z,2.58
2018-03-16T08:58:54.128Z,4.18
2018-03-16T09:01:21.581Z,1.52
2018-03-16T09:03:49.040Z,1.37
2018-03-16T09:06:16.509Z,2.30
2018-03-16T09:08:43.968Z,2.80
2018-03-16T09:11:11.424Z,3.00
2018-03-16T09:13:38.877Z,2.05
2018-03-16T09:16:06.332Z,2.58
2018-03-16T09:18:33.826Z,2.70
2018-03-16T09:21:01.240Z,2.50
2018-03-16T09:23:28.677Z,2.60
2018-03-16T09:25:56.185Z,2.90
2018-03-16T09:28:23.648Z,3.00
2018-03-16T09:30:51.093Z,3.03
2018-03-16T09:33:18.561Z,11.00
2018-03-16T09:35:46.005Z,5.03
2018-03-16T09:38:13.462Z,2.20
2018-03-16T09:40:40.959Z,2.40
2018-03-16T09:43:08.502Z,2.62
2018-03-16T09:45:35.866Z,2.00
2018-03-16T09:48:03.312Z,2.80
2018-03-16T09:50:30.748Z,1.60
2018-03-16T09:52:58.218Z,1.83
2018-03-16T09:55:47.207Z,2.00
2018-03-16T09:58:14.656Z,1.60
2018-03-16T10:00:42.103Z,1.75
2018-03-16T10:03:09.586Z,1.37
2018-03-16T10:05:37.021Z,1.23
2018-03-16T10:08:04.484Z,1.58
2018-03-16T10:10:31.937Z,2.20
2018-03-16T10:12:59.389Z,2.03
2018-03-16T10:15:26.849Z,2.30
2018-03-16T10:17:54.309Z,1.90
2018-03-16T10:20:21.750Z,1.77
2018-03-16T10:22:49.196Z,1.87
2018-03-16T10:25:16.644Z,1.40
2018-03-16T10:27:44.920Z,2.42
2018-03-16T10:30:12.361Z,1.40
2018-03-16T10:32:39.812Z,2.00
2018-03-16T10:35:07.264Z,3.58
2018-03-16T10:37:34.725Z,2.72
2018-03-16T10:40:02.173Z,3.28
2018-03-16T10:42:29.643Z,2.30
2018-03-16T10:44:57.084Z,1.55
2018-03-16T10:47:24.734Z,1.83
2018-03-16T10:49:52.184Z,5.75
2018-03-16T10:52:19.681Z,4.20
2018-03-16T10:54:47.131Z,2.90
2018-03-16T10:57:14.560Z,2.33
2018-03-16T10:59:42.019Z,1.75
2018-03-16T11:02:15.036Z,1.40
2018-03-16T11:04:42.490Z,2.20
2018-03-16T11:07:25.424Z,1.60
2018-03-16T11:09:52.876Z,1.73
2018-03-16T11:12:20.326Z,1.40
2018-03-16T11:14:47.780Z,2.30
2018-03-16T11:17:15.246Z,1.70
2018-03-16T11:19:42.686Z,1.30
2018-03-16T11:22:10.115Z,1.60
2018-03-16T11:24:37.573Z,1.30
2018-03-16T11:27:05.030Z,1.33
2018-03-16T11:29:32.490Z,1.60
2018-03-16T11:31:59.956Z,2.08
2018-03-16T11:34:27.404Z,1.23
2018-03-16T11:36:54.842Z,1.80
2018-03-16T11:39:22.281Z,1.77
2018-03-16T11:41:49.724Z,1.70
2018-03-16T11:44:17.192Z,2.20
2018-03-16T11:46:44.624Z,1.60
2018-03-16T11:49:12.128Z,1.30
2018-03-16T11:51:39.528Z,1.50
2018-03-16T11:54:07.088Z,1.90
2018-03-16T11:56:34.543Z,1.67
2018-03-16T11:59:02.004Z,1.60
2018-03-16T12:01:29.441Z,1.80
2018-03-16T12:03:56.895Z,2.15
2018-03-16T12:06:24.335Z,1.33
2018-03-16T12:08:51.787Z,1.80
2018-03-16T12:11:19.472Z,2.35
2018-03-16T12:13:46.919Z,1.80
2018-03-16T12:16:14.375Z,1.37
2018-03-16T12:18:41.819Z,1.50
2018-03-16T12:21:09.282Z,1.37
2018-03-16T12:23:36.726Z,1.37
2018-03-16T12:26:04.173Z,1.63
2018-03-16T12:28:49.374Z,2.40
2018-03-16T12:30:59.145Z,3.05
2018-03-16T12:33:26.590Z,1.40
2018-03-16T12:35:54.045Z,1.40
2018-03-16T12:38:21.486Z,1.30
2018-03-16T12:40:48.943Z,1.83
2018-03-16T12:43:16.386Z,1.40
2018-03-16T12:45:43.860Z,1.67
2018-03-16T12:48:11.315Z,1.40
2018-03-16T12:50:38.770Z,1.33
2018-03-16T12:53:06.212Z,1.52
2018-03-16T12:55:33.690Z,1.60
2018-03-16T12:58:01.148Z,2.75
2018-03-16T13:00:28.601Z,1.55
2018-03-16T13:02:56.034Z,1.40
2018-03-16T13:05:23.488Z,2.97
2018-03-16T13:07:50.930Z,1.52
2018-03-16T13:10:18.392Z,1.60
2018-03-16T13:12:45.836Z,2.00
2018-03-16T13:15:13.299Z,1.90
2018-03-16T13:17:40.744Z,1.80
2018-03-16T13:20:08.195Z,1.77
2018-03-16T13:22:35.681Z,1.58
2018-03-16T13:25:03.136Z,1.40
2018-03-16T13:27:30.607Z,1.75
2018-03-16T13:29:58.048Z,1.60
2018-03-16T13:32:25.523Z,1.95
2018-03-16T13:34:52.959Z,2.13
2018-03-16T13:37:20.408Z,1.70
2018-03-16T13:39:47.843Z,2.60
2018-03-16T13:42:15.283Z,1.60
2018-03-16T13:44:42.747Z,1.70
2018-03-16T13:47:10.200Z,1.47
2018-03-16T13:49:37.649Z,1.10
2018-03-16T13:52:05.094Z,2.00
2018-03-16T13:54:32.532Z,1.40
2018-03-16T13:56:59.996Z,1.40
2018-03-16T13:59:27.444Z,1.63
2018-03-16T14:01:54.886Z,1.47
2018-03-16T14:04:22.322Z,1.30
2018-03-16T14:06:49.763Z,1.20
2018-03-16T14:09:17.223Z,1.20
2018-03-16T14:11:44.667Z,1.50
2018-03-16T14:14:12.102Z,1.60
2018-03-16T14:16:39.544Z,1.30
2018-03-16T14:19:07.136Z,1.30
2018-03-16T14:21:34.588Z,1.43
2018-03-16T14:24:02.024Z,2.87
2018-03-16T14:26:29.487Z,1.67
2018-03-16T14:28:56.923Z,1.30
2018-03-16T14:31:24.355Z,1.33
2018-03-16T14:33:51.794Z,1.67
2018-03-16T14:36:19.220Z,1.27
2018-03-16T14:38:46.660Z,1.80
2018-03-16T14:41:14.097Z,1.90
2018-03-16T14:43:41.664Z,2.00
2018-03-16T14:46:09.130Z,1.60
2018-03-16T14:48:36.572Z,1.60
2018-03-16T14:51:04.011Z,1.63
2018-03-16T14:53:31.461Z,1.63
2018-03-16T14:55:58.915Z,3.47
2018-03-16T14:58:26.361Z,2.53
2018-03-16T15:00:53.797Z,1.80
2018-03-16T15:03:21.237Z,1.70
2018-03-16T15:05:48.675Z,1.27
2018-03-16T15:08:16.161Z,1.30
2018-03-16T15:10:43.573Z,1.50
2018-03-16T15:13:11.019Z,1.60
2018-03-16T15:15:38.456Z,1.50
2018-03-16T15:18:05.900Z,1.20
2018-03-16T15:20:33.353Z,1.40
2018-03-16T15:23:00.808Z,1.27
2018-03-16T15:25:28.214Z,1.93
2018-03-16T15:27:55.690Z,1.70
2018-03-16T15:30:23.090Z,2.40
2018-03-16T15:32:50.506Z,1.43
2018-03-16T15:35:17.939Z,1.50
2018-03-16T15:37:45.331Z,1.90
2018-03-16T15:40:12.744Z,1.77
2018-03-16T15:42:40.147Z,1.20
2018-03-16T15:45:07.559Z,1.77
2018-03-16T15:47:34.962Z,1.40
2018-03-16T15:50:02.467Z,2.22
2018-03-16T15:52:29.791Z,1.80
2018-03-16T15:54:57.247Z,1.70
2018-03-16T15:57:24.650Z,1.97
2018-03-16T15:59:52.050Z,1.80
2018-03-16T16:02:19.455Z,2.80
2018-03-16T16:04:46.862Z,2.37
2018-03-16T16:07:14.262Z,3.57
2018-03-16T16:09:41.725Z,2.35
2018-03-16T16:12:09.144Z,2.73
2018-03-16T16:14:36.537Z,2.10
2018-03-16T16:17:03.966Z,2.45
2018-03-16T16:19:31.423Z,2.20
2018-03-16T16:21:58.813Z,2.03
2018-03-16T16:24:26.238Z,2.17
2018-03-16T16:26:53.655Z,1.97
2018-03-16T16:29:21.076Z,1.50
2018-03-16T16:31:48.490Z,1.80
2018-03-16T16:34:15.935Z,1.75
2018-03-16T16:36:43.347Z,1.40
2018-03-16T16:39:10.765Z,1.40
2018-03-16T16:41:38.280Z,1.60
2018-03-16T16:44:05.698Z,2.00
2018-03-16T16:46:33.132Z,2.10
2018-03-16T16:49:00.568Z,2.10
2018-03-16T16:51:27.993Z,1.40
2018-03-16T16:53:55.406Z,1.67
2018-03-16T16:56:22.819Z,1.80
2018-03-16T16:58:50.227Z,1.80
2018-03-16T17:01:17.665Z,1.85
2018-03-16T17:03:45.081Z,1.92
2018-03-16T17:06:12.539Z,1.60
2018-03-16T17:08:40.015Z,1.30
2018-03-16T17:11:07.386Z,2.03
2018-03-16T17:13:35.714Z,2.10
2018-03-16T17:16:03.132Z,2.30
2018-03-16T17:18:30.547Z,2.47
2018-03-16T17:20:57.974Z,2.22
2018-03-16T17:23:25.378Z,1.77
2018-03-16T17:25:52.802Z,2.05
2018-03-16T17:28:20.215Z,3.08
2018-03-16T17:30:47.719Z,3.20
2018-03-16T17:33:15.140Z,2.72
2018-03-16T17:35:42.552Z,2.17
2018-03-16T17:38:09.975Z,2.58
2018-03-16T17:40:37.370Z,3.80
2018-03-16T17:43:04.795Z,2.85
2018-03-16T17:45:32.203Z,3.60
2018-03-16T17:47:59.642Z,3.70
2018-03-16T17:50:27.050Z,2.67
2018-03-16T17:52:54.477Z,1.92
2018-03-16T17:55:21.946Z,2.92
2018-03-16T17:57:49.356Z,3.40
2018-03-16T18:00:16.750Z,4.13
2018-03-16T18:02:44.172Z,3.80
2018-03-16T18:05:11.579Z,2.70
2018-03-16T18:07:39.003Z,2.37
2018-03-16T18:10:06.516Z,2.03
2018-03-16T18:12:33.934Z,2.92
2018-03-16T18:15:01.356Z,4.10
2018-03-16T18:17:28.766Z,3.70
2018-03-16T18:19:56.184Z,3.03
2018-03-16T18:22:23.602Z,3.97
2018-03-16T18:24:51.030Z,2.78
2018-03-16T18:27:18.453Z,2.20
2018-03-16T18:29:45.855Z,2.20
2018-03-16T18:32:13.272Z,2.90
2018-03-16T18:34:40.670Z,2.57
2018-03-16T18:37:08.181Z,3.15
2018-03-16T18:39:35.547Z,2.10
2018-03-16T18:42:03.074Z,2.80
2018-03-16T18:44:30.599Z,2.20
2018-03-16T18:46:58.007Z,2.73
2018-03-16T18:49:25.426Z,2.83
2018-03-16T18:51:52.941Z,2.85
2018-03-16T18:54:20.358Z,2.87
2018-03-16T18:56:47.767Z,3.12
2018-03-16T18:59:15.190Z,3.08
2018-03-16T19:01:42.674Z,2.97
2018-03-16T19:04:10.103Z,9.18
2018-03-16T19:06:37.504Z,12.67
2018-03-16T19:09:04.978Z,7.70
2018-03-16T19:11:32.532Z,18.33
2018-03-16T19:13:59.949Z,8.80
2018-03-16T19:16:27.362Z,4.62
2018-03-16T19:18:54.955Z,7.40
2018-03-16T19:21:22.364Z,8.07
2018-03-16T19:23:49.783Z,7.65
2018-03-16T19:26:17.219Z,5.50
2018-03-16T19:28:44.663Z,5.68
2018-03-16T19:31:12.053Z,3.67
2018-03-16T19:33:39.464Z,4.20
2018-03-16T19:36:06.871Z,5.00
2018-03-16T19:38:34.442Z,3.92
2018-03-16T19:41:01.853Z,2.83
2018-03-16T19:43:30.175Z,4.80
2018-03-16T19:45:57.581Z,7.05
2018-03-16T19:48:24.996Z,5.55
2018-03-16T19:50:52.402Z,3.87
2018-03-16T19:53:19.823Z,4.05
2018-03-16T19:55:47.234Z,4.00
2018-03-16T19:58:14.655Z,4.85
2018-03-16T20:00:42.055Z,4.43
2018-03-16T20:03:09.641Z,4.28
2018-03-16T20:05:37.061Z,6.62
2018-03-16T20:08:04.471Z,9.07
2018-03-16T20:10:31.887Z,5.57
2018-03-16T20:12:59.291Z,6.45
2018-03-16T20:15:26.715Z,4.65
2018-03-16T20:17:54.111Z,5.53
2018-03-16T20:20:21.518Z,5.45
2018-03-16T20:22:49.020Z,5.75
2018-03-16T20:25:16.383Z,5.47
2018-03-16T20:27:43.781Z,5.80
2018-03-16T20:30:11.273Z,6.68
2018-03-16T20:32:38.674Z,5.10
2018-03-16T20:35:06.074Z,4.87
2018-03-16T20:37:33.489Z,4.80
2018-03-16T20:40:00.960Z,3.78
2018-03-16T20:42:28.363Z,4.68
2018-03-16T20:44:55.792Z,5.50
2018-03-16T20:47:23.187Z,6.95
2018-03-16T20:49:50.596Z,8.88
2018-03-16T20:52:18.014Z,7.50
2018-03-16T20:54:45.414Z,5.95
2018-03-16T20:57:13.421Z,4.68
2018-03-16T20:59:40.820Z,5.85
2018-03-16T21:02:08.287Z,6.50
2018-03-16T21:04:35.693Z,4.93
2018-03-16T21:07:03.107Z,6.18
2018-03-16T21:09:30.511Z,5.30
2018-03-16T21:11:57.926Z,6.90
2018-03-16T21:14:25.336Z,5.70
2018-03-16T21:16:52.746Z,4.85
2018-03-16T21:19:20.153Z,6.80
2018-03-16T21:21:47.566Z,6.97
2018-03-16T21:24:14.983Z,8.13
2018-03-16T21:26:42.381Z,6.62
2018-03-16T21:29:09.788Z,6.60
2018-03-16T21:31:37.194Z,6.93
2018-03-16T21:34:04.611Z,7.87
2018-03-16T21:36:32.016Z,6.72
2018-03-16T21:38:59.420Z,5.22
2018-03-16T21:41:26.834Z,6.95
2018-03-16T21:43:54.236Z,8.02
2018-03-16T21:46:21.642Z,7.20
2018-03-16T21:48:49.058Z,7.90
2018-03-16T21:51:16.459Z,7.00
2018-03-16T21:53:43.875Z,6.50
2018-03-16T21:56:11.341Z,8.68
2018-03-16T21:58:38.812Z,9.07
2018-03-16T22:02:39.167Z,8.82
2018-03-16T22:05:06.578Z,7.95
2018-03-16T22:07:34.019Z,8.57
2018-03-16T22:10:01.421Z,9.77
2018-03-16T22:12:28.854Z,9.85
2018-03-16T22:14:56.311Z,7.95
2018-03-16T22:17:23.870Z,9.00
2018-03-16T22:19:51.354Z,8.70
2018-03-16T22:22:18.776Z,8.57
2018-03-16T22:24:46.235Z,10.32
2018-03-16T22:27:13.831Z,11.43
2018-03-16T22:29:41.281Z,12.55
2018-03-16T22:32:08.707Z,11.73
2018-03-16T22:34:36.159Z,12.32
2018-03-16T22:37:03.561Z,11.57
2018-03-16T22:39:30.995Z,11.30
2018-03-16T22:41:58.402Z,12.45
2018-03-16T22:44:25.832Z,11.85
2018-03-16T22:46:53.235Z,12.05
2018-03-16T22:49:20.658Z,11.12
2018-03-16T22:51:48.071Z,9.98
2018-03-16T22:54:15.487Z,10.63
2018-03-16T22:56:42.937Z,11.68
2018-03-16T22:59:10.308Z,11.63
2018-03-16T23:01:37.721Z,12.98
2018-03-16T23:04:05.132Z,12.82
2018-03-16T23:06:32.536Z,11.05
2018-03-16T23:08:59.973Z,18.17
2018-03-16T23:11:27.366Z,30.70
2018-03-16T23:13:54.786Z,19.80
2018-03-16T23:16:22.185Z,22.95
2018-03-16T23:18:49.606Z,27.10
2018-03-16T23:21:17.010Z,20.98
2018-03-16T23:23:44.435Z,12.77
2018-03-16T23:26:11.835Z,12.93
2018-03-16T23:28:39.263Z,11.18
2018-03-16T23:31:06.670Z,10.30
2018-03-16T23:33:34.073Z,10.43
2018-03-16T23:36:01.486Z,10.75
2018-03-16T23:38:28.889Z,10.15
2018-03-16T23:40:56.308Z,9.68
2018-03-16T23:43:23.712Z,10.68
2018-03-16T23:45:51.126Z,10.35
2018-03-16T23:48:18.531Z,9.60
2018-03-16T23:50:45.950Z,9.75
2018-03-16T23:53:13.353Z,11.43
2018-03-16T23:55:40.771Z,10.73
2018-03-16T23:58:08.183Z,10.93
